PWSweather.com
Personal Weather Stations
Station Observations
CARNOUSTIE
Pambride, CarnoustieGB DD7 6DY

PambrideCarnoustieGB DD7 6DY

Lat: 56.50889, Lon: -2.7051

Elevation: 105

Station Type: Oregon Scientific WMR200

Latest ConditionsUpdated 9:00:00 AM GMT Thursday, Dec 12, 2019
Currently Today's Max Today's Min Today's Average
Temperature 36.7°F2.6°C 37.8°F3.2°C 35.4°F1.9°C 37.1°F2.8°C
Dew Point 27.1°F-2.7°C 27.8°F-2.3°C 25.5°F-3.6°C 27.1°F-2.7°C
Winds 3.5 mph WSW5.6 kmh WSW 9.2 mph -14.8 kmh - - 5.0 mph 8.0 kmh
Wind Gusts 4.6 mph7.4 kmh 13.8 mph22.2 kmh - -
Humidity 68% 68% 64% 67%
Pressure 29.09 in985.1 mb 29.23 in989.8 mb 29.09 in985.1 mb -
Hour Temp Dew Point Humidity Winds Wind Gusts Pressure Precip Precip Rate Daily Precip Total
09:00 AM 36.7°F2.6°C 27.1°F-2.7°C 68% 3.5 mph WSW5.6 kmh WSW 4.6 mph7.4 kmh 29.09 in985.1 mb - 0.00 in0.0 mm 0.00 in0.0 mm
08:55 AM 36.7°F2.6°C 27.1°F-2.7°C 68% 2.3 mph W3.7 kmh W 3.5 mph5.6 kmh 29.09 in985.1 mb - 0.00 in0.0 mm 0.00 in0.0 mm
08:50 AM 36.7°F2.6°C 27.1°F-2.7°C 68% 2.3 mph WSW3.7 kmh WSW 3.5 mph5.6 kmh 29.09 in985.1 mb - 0.00 in0.0 mm 0.00 in0.0 mm
08:45 AM 36.7°F2.6°C 27.1°F-2.7°C 68% 2.3 mph SW3.7 kmh SW 2.3 mph3.7 kmh 29.09 in985.1 mb - 0.00 in0.0 mm 0.00 in0.0 mm
08:40 AM 36.7°F2.6°C 27.1°F-2.7°C 68% 2.3 mph WSW3.7 kmh WSW 3.5 mph5.6 kmh 29.09 in985.1 mb - 0.00 in0.0 mm 0.00 in0.0 mm
08:35 AM 36.6°F2.6°C 27.0°F-2.8°C 68% 2.3 mph W3.7 kmh W 3.5 mph5.6 kmh 29.09 in985.1 mb - 0.00 in0.0 mm 0.00 in0.0 mm
08:30 AM 36.3°F2.4°C 26.8°F-2.9°C 68% 2.3 mph SW3.7 kmh SW 3.5 mph5.6 kmh 29.09 in985.1 mb - 0.00 in0.0 mm 0.00 in0.0 mm
08:25 AM 36.1°F2.3°C 26.6°F-3.0°C 68% 1.2 mph SW1.9 kmh SW 2.3 mph3.7 kmh 29.09 in985.1 mb - 0.00 in0.0 mm 0.00 in0.0 mm
08:20 AM 35.8°F2.1°C 25.9°F-3.4°C 67% 2.3 mph S3.7 kmh S 3.5 mph5.6 kmh 29.09 in985.1 mb - 0.00 in0.0 mm 0.00 in0.0 mm
08:15 AM 35.6°F2.0°C 25.7°F-3.5°C 67% 1.2 mph SSW1.9 kmh SSW 2.3 mph3.7 kmh 29.12 in986.1 mb - 0.00 in0.0 mm 0.00 in0.0 mm
08:10 AM 35.4°F1.9°C 25.5°F-3.6°C 67% 2.3 mph S3.7 kmh S 3.5 mph5.6 kmh 29.12 in986.1 mb - 0.00 in0.0 mm 0.00 in0.0 mm
08:00 AM 36.0°F2.2°C 26.1°F-3.3°C 67% Calm Calm -- 29.09 in985.1 mb - 0.00 in0.0 mm 0.00 in0.0 mm
07:55 AM 36.1°F2.3°C 26.2°F-3.2°C 67% 1.2 mph ESE1.9 kmh ESE 2.3 mph3.7 kmh 29.09 in985.1 mb - 0.00 in0.0 mm 0.00 in0.0 mm
07:50 AM 36.3°F2.4°C 26.4°F-3.1°C 67% Calm Calm -- 29.09 in985.1 mb - 0.00 in0.0 mm 0.00 in0.0 mm
07:45 AM 36.5°F2.5°C 26.6°F-3.0°C 67% Calm Calm -- 29.12 in986.1 mb - 0.00 in0.0 mm 0.00 in0.0 mm
07:40 AM 36.7°F2.6°C 26.7°F-2.9°C 67% 1.2 mph S1.9 kmh S 2.3 mph3.7 kmh 29.12 in986.1 mb - 0.00 in0.0 mm 0.00 in0.0 mm
07:35 AM 36.9°F2.7°C 27.3°F-2.6°C 68% Calm Calm -- 29.12 in986.1 mb - 0.00 in0.0 mm 0.00 in0.0 mm
07:30 AM 37.0°F2.8°C 27.5°F-2.5°C 68% Calm Calm 1.2 mph1.9 kmh 29.09 in985.1 mb - 0.00 in0.0 mm 0.00 in0.0 mm
07:25 AM 37.0°F2.8°C 27.5°F-2.5°C 68% 1.2 mph NW1.9 kmh NW 1.2 mph1.9 kmh 29.09 in985.1 mb - 0.00 in0.0 mm 0.00 in0.0 mm
07:20 AM 37.0°F2.8°C 27.5°F-2.5°C 68% 3.5 mph W5.6 kmh W 4.6 mph7.4 kmh 29.09 in985.1 mb - 0.00 in0.0 mm 0.00 in0.0 mm
07:15 AM 37.0°F2.8°C 27.5°F-2.5°C 68% 3.5 mph W5.6 kmh W 4.6 mph7.4 kmh 29.12 in986.1 mb - 0.00 in0.0 mm 0.00 in0.0 mm
07:10 AM 36.9°F2.7°C 26.9°F-2.8°C 67% 4.6 mph WNW7.4 kmh WNW 4.6 mph7.4 kmh 29.12 in986.1 mb - 0.00 in0.0 mm 0.00 in0.0 mm
07:00 AM 36.7°F2.6°C 26.7°F-2.9°C 67% 2.3 mph W3.7 kmh W 3.5 mph5.6 kmh 29.12 in986.1 mb - 0.00 in0.0 mm 0.00 in0.0 mm
06:55 AM 36.9°F2.7°C 26.9°F-2.8°C 67% 2.3 mph SW3.7 kmh SW 3.5 mph5.6 kmh 29.12 in986.1 mb - 0.00 in0.0 mm 0.00 in0.0 mm
06:50 AM 36.9°F2.7°C 26.9°F-2.8°C 67% 2.3 mph WSW3.7 kmh WSW 4.6 mph7.4 kmh 29.12 in986.1 mb - 0.00 in0.0 mm 0.00 in0.0 mm
06:45 AM 37.0°F2.8°C 27.5°F-2.5°C 68% 4.6 mph W7.4 kmh W 5.8 mph9.3 kmh 29.12 in986.1 mb - 0.00 in0.0 mm 0.00 in0.0 mm
06:40 AM 37.1°F2.8°C 27.5°F-2.5°C 68% 4.6 mph WSW7.4 kmh WSW 5.8 mph9.3 kmh 29.12 in986.1 mb - 0.00 in0.0 mm 0.00 in0.0 mm
06:35 AM 37.2°F2.9°C 27.6°F-2.4°C 68% 5.8 mph WSW9.3 kmh WSW 8.1 mph13.0 kmh 29.12 in986.1 mb - 0.00 in0.0 mm 0.00 in0.0 mm
06:30 AM 37.2°F2.9°C 27.6°F-2.4°C 68% 5.8 mph WSW9.3 kmh WSW 9.2 mph14.8 kmh 29.12 in986.1 mb - 0.00 in0.0 mm 0.00 in0.0 mm
06:25 AM 37.2°F2.9°C 27.6°F-2.4°C 68% 4.6 mph W7.4 kmh W 8.1 mph13.0 kmh 29.12 in986.1 mb - 0.00 in0.0 mm 0.00 in0.0 mm
06:20 AM 37.0°F2.8°C 27.5°F-2.5°C 68% 4.6 mph SW7.4 kmh SW 5.8 mph9.3 kmh 29.12 in986.1 mb - 0.00 in0.0 mm 0.00 in0.0 mm
06:15 AM 37.0°F2.8°C 27.5°F-2.5°C 68% 5.8 mph W9.3 kmh W 10.4 mph16.7 kmh 29.12 in986.1 mb - 0.00 in0.0 mm 0.00 in0.0 mm
06:10 AM 37.0°F2.8°C 27.5°F-2.5°C 68% 4.6 mph W7.4 kmh W 5.8 mph9.3 kmh 29.12 in986.1 mb - 0.00 in0.0 mm 0.00 in0.0 mm
06:00 AM 37.2°F2.9°C 27.6°F-2.4°C 68% 3.5 mph W5.6 kmh W 3.5 mph5.6 kmh 29.15 in987.1 mb - 0.00 in0.0 mm 0.00 in0.0 mm
05:55 AM 37.1°F2.8°C 27.5°F-2.5°C 68% 5.8 mph SW9.3 kmh SW 6.9 mph11.1 kmh 29.15 in987.1 mb - 0.00 in0.0 mm 0.00 in0.0 mm
05:50 AM 37.0°F2.8°C 27.5°F-2.5°C 68% 3.5 mph WSW5.6 kmh WSW 5.8 mph9.3 kmh 29.15 in987.1 mb - 0.00 in0.0 mm 0.00 in0.0 mm
05:45 AM 36.9°F2.7°C 27.3°F-2.6°C 68% 4.6 mph WSW7.4 kmh WSW 8.1 mph13.0 kmh 29.15 in987.1 mb - 0.00 in0.0 mm 0.00 in0.0 mm
05:40 AM 36.9°F2.7°C 27.3°F-2.6°C 68% 3.5 mph WSW5.6 kmh WSW 4.6 mph7.4 kmh 29.15 in987.1 mb - 0.00 in0.0 mm 0.00 in0.0 mm
05:35 AM 36.9°F2.7°C 27.3°F-2.6°C 68% 2.3 mph W3.7 kmh W 3.5 mph5.6 kmh 29.15 in987.1 mb - 0.00 in0.0 mm 0.00 in0.0 mm
05:30 AM 36.9°F2.7°C 27.3°F-2.6°C 68% 3.5 mph SW5.6 kmh SW 4.6 mph7.4 kmh 29.15 in987.1 mb - 0.00 in0.0 mm 0.00 in0.0 mm
05:25 AM 36.9°F2.7°C 27.3°F-2.6°C 68% 3.5 mph S5.6 kmh S 5.8 mph9.3 kmh 29.15 in987.1 mb - 0.00 in0.0 mm 0.00 in0.0 mm
05:20 AM 36.9°F2.7°C 27.3°F-2.6°C 68% 3.5 mph SSW5.6 kmh SSW 4.6 mph7.4 kmh 29.15 in987.1 mb - 0.00 in0.0 mm 0.00 in0.0 mm
05:15 AM 36.9°F2.7°C 27.3°F-2.6°C 68% 2.3 mph S3.7 kmh S 3.5 mph5.6 kmh 29.15 in987.1 mb - 0.00 in0.0 mm 0.00 in0.0 mm
05:10 AM 36.9°F2.7°C 27.4°F-2.6°C 68% 2.3 mph W3.7 kmh W 2.3 mph3.7 kmh 29.15 in987.1 mb - 0.00 in0.0 mm 0.00 in0.0 mm
05:00 AM 37.0°F2.8°C 27.5°F-2.5°C 68% 2.3 mph W3.7 kmh W 6.9 mph11.1 kmh 29.15 in987.1 mb - 0.00 in0.0 mm 0.00 in0.0 mm
04:55 AM 37.2°F2.9°C 27.6°F-2.4°C 68% 4.6 mph WSW7.4 kmh WSW 8.1 mph13.0 kmh 29.15 in987.1 mb - 0.00 in0.0 mm 0.00 in0.0 mm
04:50 AM 37.4°F3.0°C 27.4°F-2.6°C 67% 6.9 mph WSW11.1 kmh WSW 8.1 mph13.0 kmh 29.15 in987.1 mb - 0.00 in0.0 mm 0.00 in0.0 mm
04:45 AM 37.4°F3.0°C 27.4°F-2.6°C 67% 5.8 mph W9.3 kmh W 6.9 mph11.1 kmh 29.15 in987.1 mb - 0.00 in0.0 mm 0.00 in0.0 mm
04:40 AM 37.4°F3.0°C 27.4°F-2.6°C 67% 5.8 mph WSW9.3 kmh WSW 8.1 mph13.0 kmh 29.15 in987.1 mb - 0.00 in0.0 mm 0.00 in0.0 mm
04:35 AM 37.4°F3.0°C 27.4°F-2.6°C 67% 5.8 mph W9.3 kmh W 6.9 mph11.1 kmh 29.15 in987.1 mb - 0.00 in0.0 mm 0.00 in0.0 mm
04:30 AM 37.4°F3.0°C 27.8°F-2.3°C 68% 6.9 mph W11.1 kmh W 10.4 mph16.7 kmh 29.15 in987.1 mb - 0.00 in0.0 mm 0.00 in0.0 mm
04:25 AM 37.4°F3.0°C 27.4°F-2.6°C 67% 5.8 mph WSW9.3 kmh WSW 8.1 mph13.0 kmh 29.15 in987.1 mb - 0.00 in0.0 mm 0.00 in0.0 mm
04:20 AM 37.4°F3.0°C 27.4°F-2.6°C 67% 5.8 mph SW9.3 kmh SW 10.4 mph16.7 kmh 29.15 in987.1 mb - 0.00 in0.0 mm 0.00 in0.0 mm
04:15 AM 37.4°F3.0°C 27.4°F-2.6°C 67% 8.1 mph W13.0 kmh W 11.5 mph18.5 kmh 29.12 in986.1 mb - 0.00 in0.0 mm 0.00 in0.0 mm
04:10 AM 37.2°F2.9°C 27.6°F-2.4°C 68% 8.1 mph W13.0 kmh W 13.8 mph22.2 kmh 29.12 in986.1 mb - 0.00 in0.0 mm 0.00 in0.0 mm
04:00 AM 37.1°F2.8°C 27.1°F-2.7°C 67% 5.8 mph SW9.3 kmh SW 8.1 mph13.0 kmh 29.15 in987.1 mb - 0.00 in0.0 mm 0.00 in0.0 mm
03:55 AM 37.2°F2.9°C 27.3°F-2.6°C 67% 6.9 mph W11.1 kmh W 10.4 mph16.7 kmh 29.15 in987.1 mb - 0.00 in0.0 mm 0.00 in0.0 mm
03:50 AM 37.3°F2.9°C 27.3°F-2.6°C 67% 4.6 mph WSW7.4 kmh WSW 8.1 mph13.0 kmh 29.15 in987.1 mb - 0.00 in0.0 mm 0.00 in0.0 mm
03:45 AM 37.4°F3.0°C 27.1°F-2.7°C 66% 9.2 mph SW14.8 kmh SW 10.4 mph16.7 kmh 29.15 in987.1 mb - 0.00 in0.0 mm 0.00 in0.0 mm
03:40 AM 37.4°F3.0°C 27.1°F-2.7°C 66% 8.1 mph W13.0 kmh W 13.8 mph22.2 kmh 29.15 in987.1 mb - 0.00 in0.0 mm 0.00 in0.0 mm
03:35 AM 37.4°F3.0°C 27.1°F-2.7°C 66% 8.1 mph WSW13.0 kmh WSW 12.7 mph20.4 kmh 29.15 in987.1 mb - 0.00 in0.0 mm 0.00 in0.0 mm
03:30 AM 37.2°F2.9°C 27.3°F-2.6°C 67% 9.2 mph W14.8 kmh W 11.5 mph18.5 kmh 29.18 in988.1 mb - 0.00 in0.0 mm 0.00 in0.0 mm
03:25 AM 37.0°F2.8°C 27.1°F-2.7°C 67% 6.9 mph SW11.1 kmh SW 8.1 mph13.0 kmh 29.18 in988.1 mb - 0.00 in0.0 mm 0.00 in0.0 mm
03:20 AM 37.2°F2.9°C 27.3°F-2.6°C 67% 4.6 mph WSW7.4 kmh WSW 5.8 mph9.3 kmh 29.18 in988.1 mb - 0.00 in0.0 mm 0.00 in0.0 mm
03:15 AM 37.2°F2.9°C 27.3°F-2.6°C 67% 5.8 mph WSW9.3 kmh WSW 10.4 mph16.7 kmh 29.18 in988.1 mb - 0.00 in0.0 mm 0.00 in0.0 mm
03:10 AM 37.2°F2.9°C 27.3°F-2.6°C 67% 8.1 mph WSW13.0 kmh WSW 11.5 mph18.5 kmh 29.18 in988.1 mb - 0.00 in0.0 mm 0.00 in0.0 mm
03:00 AM 37.0°F2.8°C 27.1°F-2.7°C 67% 6.9 mph WSW11.1 kmh WSW 9.2 mph14.8 kmh 29.18 in988.1 mb - 0.00 in0.0 mm 0.00 in0.0 mm
02:55 AM 37.0°F2.8°C 27.1°F-2.7°C 67% 8.1 mph WSW13.0 kmh WSW 10.4 mph16.7 kmh 29.18 in988.1 mb - 0.00 in0.0 mm 0.00 in0.0 mm
02:50 AM 37.0°F2.8°C 27.1°F-2.7°C 67% 6.9 mph SW11.1 kmh SW 9.2 mph14.8 kmh 29.18 in988.1 mb - 0.00 in0.0 mm 0.00 in0.0 mm
02:45 AM 37.0°F2.8°C 27.1°F-2.7°C 67% 8.1 mph WSW13.0 kmh WSW 12.7 mph20.4 kmh 29.18 in988.1 mb - 0.00 in0.0 mm 0.00 in0.0 mm
02:40 AM 36.9°F2.7°C 26.6°F-3.0°C 66% 6.9 mph WNW11.1 kmh WNW 9.2 mph14.8 kmh 29.18 in988.1 mb - 0.00 in0.0 mm 0.00 in0.0 mm
02:35 AM 36.7°F2.6°C 26.4°F-3.1°C 66% 5.8 mph W9.3 kmh W 11.5 mph18.5 kmh 29.18 in988.1 mb - 0.00 in0.0 mm 0.00 in0.0 mm
02:30 AM 36.9°F2.7°C 26.6°F-3.0°C 66% 8.1 mph W13.0 kmh W 10.4 mph16.7 kmh 29.20 in988.8 mb - 0.00 in0.0 mm 0.00 in0.0 mm
02:25 AM 36.9°F2.7°C 26.2°F-3.2°C 65% 4.6 mph W7.4 kmh W 5.8 mph9.3 kmh 29.20 in988.8 mb - 0.00 in0.0 mm 0.00 in0.0 mm
02:20 AM 37.1°F2.8°C 26.4°F-3.1°C 65% 5.8 mph WSW9.3 kmh WSW 9.2 mph14.8 kmh 29.20 in988.8 mb - 0.00 in0.0 mm 0.00 in0.0 mm
02:15 AM 37.4°F3.0°C 26.7°F-2.9°C 65% 5.8 mph WSW9.3 kmh WSW 8.1 mph13.0 kmh 29.20 in988.8 mb - 0.00 in0.0 mm 0.00 in0.0 mm
02:10 AM 37.4°F3.0°C 26.7°F-2.9°C 65% 6.9 mph W11.1 kmh W 8.1 mph13.0 kmh 29.20 in988.8 mb - 0.00 in0.0 mm 0.00 in0.0 mm
02:00 AM 37.6°F3.1°C 27.2°F-2.7°C 66% 8.1 mph WSW13.0 kmh WSW 10.4 mph16.7 kmh 29.20 in988.8 mb - 0.00 in0.0 mm 0.00 in0.0 mm
01:55 AM 37.4°F3.0°C 26.7°F-2.9°C 65% 9.2 mph SW14.8 kmh SW 11.5 mph18.5 kmh 29.20 in988.8 mb - 0.00 in0.0 mm 0.00 in0.0 mm
01:50 AM 37.4°F3.0°C 26.7°F-2.9°C 65% 6.9 mph WSW11.1 kmh WSW 13.8 mph22.2 kmh 29.20 in988.8 mb - 0.00 in0.0 mm 0.00 in0.0 mm
01:45 AM 37.4°F3.0°C 26.7°F-2.9°C 65% 6.9 mph WSW11.1 kmh WSW 8.1 mph13.0 kmh 29.20 in988.8 mb - 0.00 in0.0 mm 0.00 in0.0 mm
01:40 AM 37.4°F3.0°C 26.7°F-2.9°C 65% 9.2 mph WSW14.8 kmh WSW 9.2 mph14.8 kmh 29.20 in988.8 mb - 0.00 in0.0 mm 0.00 in0.0 mm
01:35 AM 37.4°F3.0°C 26.7°F-2.9°C 65% 5.8 mph WSW9.3 kmh WSW 9.2 mph14.8 kmh 29.20 in988.8 mb - 0.00 in0.0 mm 0.00 in0.0 mm
01:30 AM 37.6°F3.1°C 26.9°F-2.8°C 65% 8.1 mph WSW13.0 kmh WSW 11.5 mph18.5 kmh 29.20 in988.8 mb - 0.00 in0.0 mm 0.00 in0.0 mm
01:25 AM 37.6°F3.1°C 26.5°F-3.1°C 64% 5.8 mph W9.3 kmh W 10.4 mph16.7 kmh 29.20 in988.8 mb - 0.00 in0.0 mm 0.00 in0.0 mm
01:20 AM 37.6°F3.1°C 26.5°F-3.1°C 64% 6.9 mph W11.1 kmh W 10.4 mph16.7 kmh 29.20 in988.8 mb - 0.00 in0.0 mm 0.00 in0.0 mm
01:15 AM 37.6°F3.1°C 26.9°F-2.8°C 65% 8.1 mph WSW13.0 kmh WSW 12.7 mph20.4 kmh 29.20 in988.8 mb - 0.00 in0.0 mm 0.00 in0.0 mm
01:10 AM 37.6°F3.1°C 26.9°F-2.8°C 65% 6.9 mph SW11.1 kmh SW 9.2 mph14.8 kmh 29.20 in988.8 mb - 0.00 in0.0 mm 0.00 in0.0 mm
01:00 AM 37.6°F3.1°C 27.2°F-2.7°C 66% 9.2 mph W14.8 kmh W 13.8 mph22.2 kmh 29.20 in988.8 mb - 0.00 in0.0 mm 0.00 in0.0 mm
12:55 AM 37.6°F3.1°C 27.2°F-2.7°C 66% 6.9 mph W11.1 kmh W 8.1 mph13.0 kmh 29.20 in988.8 mb - 0.00 in0.0 mm 0.00 in0.0 mm
12:50 AM 37.8°F3.2°C 27.8°F-2.3°C 67% 8.1 mph WSW13.0 kmh WSW 9.2 mph14.8 kmh 29.20 in988.8 mb - 0.00 in0.0 mm 0.00 in0.0 mm
12:45 AM 37.6°F3.1°C 27.6°F-2.4°C 67% 9.2 mph W14.8 kmh W 13.8 mph22.2 kmh 29.20 in988.8 mb - 0.00 in0.0 mm 0.00 in0.0 mm
12:40 AM 37.4°F3.0°C 27.4°F-2.6°C 67% 5.8 mph WSW9.3 kmh WSW 11.5 mph18.5 kmh 29.20 in988.8 mb - 0.00 in0.0 mm 0.00 in0.0 mm
12:35 AM 37.4°F3.0°C 27.4°F-2.6°C 67% 5.8 mph WSW9.3 kmh WSW 8.1 mph13.0 kmh 29.20 in988.8 mb - 0.00 in0.0 mm 0.00 in0.0 mm
12:30 AM 37.4°F3.0°C 27.4°F-2.6°C 67% 5.8 mph W9.3 kmh W 9.2 mph14.8 kmh 29.20 in988.8 mb - 0.00 in0.0 mm 0.00 in0.0 mm
12:25 AM 37.6°F3.1°C 27.6°F-2.4°C 67% 6.9 mph NW11.1 kmh NW 10.4 mph16.7 kmh 29.20 in988.8 mb - 0.00 in0.0 mm 0.00 in0.0 mm
12:20 AM 37.4°F3.0°C 27.4°F-2.6°C 67% 4.6 mph WNW7.4 kmh WNW 8.1 mph13.0 kmh 29.20 in988.8 mb - 0.00 in0.0 mm 0.00 in0.0 mm
12:15 AM 37.5°F3.1°C 27.5°F-2.5°C 67% 5.8 mph W9.3 kmh W 8.1 mph13.0 kmh 29.23 in989.8 mb - 0.00 in0.0 mm 0.00 in0.0 mm
12:10 AM 37.4°F3.0°C 27.4°F-2.6°C 67% 4.6 mph W7.4 kmh W 5.8 mph9.3 kmh 29.23 in989.8 mb - 0.00 in0.0 mm 0.00 in0.0 mm
12:00 AM 37.4°F3.0°C 27.4°F-2.6°C 67% 5.8 mph SW9.3 kmh SW 8.1 mph13.0 kmh 29.23 in989.8 mb - 0.00 in0.0 mm 0.00 in0.0 mm